<?xml version="1.0" encoding="UTF-8" standalone="no" ?>
<gpx xmlns="http://www.topografix.com/GPX/1/1" xmlns:xsi="http://www.w3.org/2001/XMLSchema-instance" xsi:schemaLocation="http://www.topografix.com/GPX/1/1 http://www.topografix.com/GPX/1/1/gpx.xsd" version="1.1" creator="VisuGPX - https://www.visugpx.com">
  <metadata>
    <name>Le sentier de la Méridienne version courte</name>
  </metadata>
  <wpt lat="43.96359" lon="2.3344">
    <ele>395</ele>
    <name><![CDATA[Place de l'église]]></name>
  </wpt>
  <wpt lat="43.96178" lon="2.32982">
    <ele>390</ele>
    <name><![CDATA[À gauche, petite route goudronnée]]></name>
  </wpt>
  <wpt lat="43.94915" lon="2.32607">
    <ele>385</ele>
    <name><![CDATA[À droite,  chemin herbeux]]></name>
  </wpt>
  <wpt lat="43.94537" lon="2.31035">
    <ele>211</ele>
    <name><![CDATA[La Mélonié]]></name>
  </wpt>
  <wpt lat="43.94778" lon="2.30938">
    <ele>222</ele>
    <name><![CDATA[Les Farguettes]]></name>
  </wpt>
  <wpt lat="43.94273" lon="2.3066">
    <ele>195</ele>
    <name><![CDATA[D700: à gauche]]></name>
  </wpt>
  <wpt lat="43.94167" lon="2.30665">
    <ele>194</ele>
    <name><![CDATA[À gauche: route de la Mélonié]]></name>
  </wpt>
  <wpt lat="43.94246" lon="2.3104">
    <ele>205</ele>
    <name><![CDATA[À droite: chemin vers les bois]]></name>
  </wpt>
  <wpt lat="43.93711" lon="2.31384">
    <ele>319</ele>
    <name><![CDATA[Crête: à gauche puis droite]]></name>
  </wpt>
  <wpt lat="43.93411" lon="2.31882">
    <ele>186</ele>
    <name><![CDATA[Pécotte]]></name>
  </wpt>
  <wpt lat="43.93577" lon="2.33189">
    <ele>197</ele>
    <name><![CDATA[Pont sur l'Aygou]]></name>
  </wpt>
  <wpt lat="43.93834" lon="2.33306">
    <ele>223</ele>
    <name><![CDATA[Sentier à droite]]></name>
  </wpt>
  <wpt lat="43.95101" lon="2.33865">
    <ele>395</ele>
    <name><![CDATA[Petite route goudronnée]]></name>
  </wpt>
  <wpt lat="43.96231" lon="2.33857">
    <ele>392</ele>
    <name><![CDATA[À gauche: sentier herbeux]]></name>
  </wpt>
  <wpt lat="43.96359" lon="2.33441">
    <ele>395</ele>
    <name><![CDATA[Place de l'église]]></name>
  </wpt>
  <trk>
    <name><![CDATA[Le sentier de la Méridienne version courte]]></name>
    <trkseg>
      <trkpt lat="43.96359" lon="2.3344">
        <ele>395</ele>
        <time>2021-04-24T17:13:28+02:00</time>
      </trkpt>
      <trkpt lat="43.96376" lon="2.33427">
        <ele>395</ele>
        <time>2021-04-24T17:13:33+02:00</time>
      </trkpt>
      <trkpt lat="43.96367" lon="2.33393">
        <ele>395</ele>
        <time>2021-04-24T17:13:38+02:00</time>
      </trkpt>
      <trkpt lat="43.96313" lon="2.33202">
        <ele>392</ele>
        <time>2021-04-24T17:13:43+02:00</time>
      </trkpt>
      <trkpt lat="43.96273" lon="2.33126">
        <ele>391</ele>
        <time>2021-04-24T17:13:48+02:00</time>
      </trkpt>
      <trkpt lat="43.96178" lon="2.32982">
        <ele>390</ele>
        <time>2021-04-24T17:13:53+02:00</time>
      </trkpt>
      <trkpt lat="43.96123" lon="2.32934">
        <ele>390</ele>
        <time>2021-04-24T17:13:58+02:00</time>
      </trkpt>
      <trkpt lat="43.96027" lon="2.32865">
        <ele>390</ele>
        <time>2021-04-24T17:14:03+02:00</time>
      </trkpt>
      <trkpt lat="43.95967" lon="2.32832">
        <ele>390</ele>
        <time>2021-04-24T17:14:08+02:00</time>
      </trkpt>
      <trkpt lat="43.95858" lon="2.32779">
        <ele>388</ele>
        <time>2021-04-24T17:14:13+02:00</time>
      </trkpt>
      <trkpt lat="43.95755" lon="2.32745">
        <ele>386</ele>
        <time>2021-04-24T17:14:18+02:00</time>
      </trkpt>
      <trkpt lat="43.9564" lon="2.32713">
        <ele>387</ele>
        <time>2021-04-24T17:14:23+02:00</time>
      </trkpt>
      <trkpt lat="43.95531" lon="2.3269">
        <ele>390</ele>
        <time>2021-04-24T17:14:28+02:00</time>
      </trkpt>
      <trkpt lat="43.95436" lon="2.3267">
        <ele>388</ele>
        <time>2021-04-24T17:14:33+02:00</time>
      </trkpt>
      <trkpt lat="43.95285" lon="2.32671">
        <ele>385</ele>
        <time>2021-04-24T17:14:38+02:00</time>
      </trkpt>
      <trkpt lat="43.95084" lon="2.3262">
        <ele>380</ele>
        <time>2021-04-24T17:14:43+02:00</time>
      </trkpt>
      <trkpt lat="43.9502" lon="2.32595">
        <ele>380</ele>
        <time>2021-04-24T17:14:48+02:00</time>
      </trkpt>
      <trkpt lat="43.94965" lon="2.3259">
        <ele>382</ele>
        <time>2021-04-24T17:14:53+02:00</time>
      </trkpt>
      <trkpt lat="43.94915" lon="2.32607">
        <ele>385</ele>
        <time>2021-04-24T17:14:58+02:00</time>
      </trkpt>
      <trkpt lat="43.94894" lon="2.3252">
        <ele>385</ele>
        <time>2021-04-24T17:15:03+02:00</time>
      </trkpt>
      <trkpt lat="43.9487" lon="2.32401">
        <ele>385</ele>
        <time>2021-04-24T17:15:08+02:00</time>
      </trkpt>
      <trkpt lat="43.94845" lon="2.32331">
        <ele>385</ele>
        <time>2021-04-24T17:15:13+02:00</time>
      </trkpt>
      <trkpt lat="43.94781" lon="2.3221">
        <ele>377</ele>
        <time>2021-04-24T17:15:18+02:00</time>
      </trkpt>
      <trkpt lat="43.94701" lon="2.3211">
        <ele>373</ele>
        <time>2021-04-24T17:15:23+02:00</time>
      </trkpt>
      <trkpt lat="43.94609" lon="2.31952">
        <ele>375</ele>
        <time>2021-04-24T17:15:28+02:00</time>
      </trkpt>
      <trkpt lat="43.94572" lon="2.31874">
        <ele>371</ele>
        <time>2021-04-24T17:15:33+02:00</time>
      </trkpt>
      <trkpt lat="43.94459" lon="2.31767">
        <ele>361</ele>
        <time>2021-04-24T17:15:38+02:00</time>
      </trkpt>
      <trkpt lat="43.94437" lon="2.317">
        <ele>356</ele>
        <time>2021-04-24T17:15:43+02:00</time>
      </trkpt>
      <trkpt lat="43.94429" lon="2.31644">
        <ele>349</ele>
        <time>2021-04-24T17:15:48+02:00</time>
      </trkpt>
      <trkpt lat="43.94403" lon="2.31585">
        <ele>338</ele>
        <time>2021-04-24T17:15:53+02:00</time>
      </trkpt>
      <trkpt lat="43.94368" lon="2.3155">
        <ele>330</ele>
        <time>2021-04-24T17:15:58+02:00</time>
      </trkpt>
      <trkpt lat="43.94347" lon="2.31542">
        <ele>329</ele>
        <time>2021-04-24T17:16:03+02:00</time>
      </trkpt>
      <trkpt lat="43.94319" lon="2.31528">
        <ele>324</ele>
        <time>2021-04-24T17:16:08+02:00</time>
      </trkpt>
      <trkpt lat="43.94287" lon="2.31521">
        <ele>317</ele>
        <time>2021-04-24T17:16:13+02:00</time>
      </trkpt>
      <trkpt lat="43.94238" lon="2.31533">
        <ele>310</ele>
        <time>2021-04-24T17:16:18+02:00</time>
      </trkpt>
      <trkpt lat="43.942" lon="2.31531">
        <ele>301</ele>
        <time>2021-04-24T17:16:23+02:00</time>
      </trkpt>
      <trkpt lat="43.94194" lon="2.31491">
        <ele>292</ele>
        <time>2021-04-24T17:16:28+02:00</time>
      </trkpt>
      <trkpt lat="43.94207" lon="2.31452">
        <ele>286</ele>
        <time>2021-04-24T17:16:33+02:00</time>
      </trkpt>
      <trkpt lat="43.94221" lon="2.31415">
        <ele>280</ele>
        <time>2021-04-24T17:16:38+02:00</time>
      </trkpt>
      <trkpt lat="43.94247" lon="2.31389">
        <ele>275</ele>
        <time>2021-04-24T17:16:43+02:00</time>
      </trkpt>
      <trkpt lat="43.94286" lon="2.31367">
        <ele>272</ele>
        <time>2021-04-24T17:16:48+02:00</time>
      </trkpt>
      <trkpt lat="43.94295" lon="2.31345">
        <ele>264</ele>
        <time>2021-04-24T17:16:53+02:00</time>
      </trkpt>
      <trkpt lat="43.94284" lon="2.31333">
        <ele>259</ele>
        <time>2021-04-24T17:16:58+02:00</time>
      </trkpt>
      <trkpt lat="43.94238" lon="2.31344">
        <ele>260</ele>
        <time>2021-04-24T17:17:03+02:00</time>
      </trkpt>
      <trkpt lat="43.94236" lon="2.31318">
        <ele>251</ele>
        <time>2021-04-24T17:17:08+02:00</time>
      </trkpt>
      <trkpt lat="43.94267" lon="2.31292">
        <ele>246</ele>
        <time>2021-04-24T17:17:13+02:00</time>
      </trkpt>
      <trkpt lat="43.94305" lon="2.31259">
        <ele>234</ele>
        <time>2021-04-24T17:17:18+02:00</time>
      </trkpt>
      <trkpt lat="43.9432" lon="2.31236">
        <ele>230</ele>
        <time>2021-04-24T17:17:23+02:00</time>
      </trkpt>
      <trkpt lat="43.94324" lon="2.31202">
        <ele>224</ele>
        <time>2021-04-24T17:17:28+02:00</time>
      </trkpt>
      <trkpt lat="43.94304" lon="2.31125">
        <ele>213</ele>
        <time>2021-04-24T17:17:33+02:00</time>
      </trkpt>
      <trkpt lat="43.94389" lon="2.31148">
        <ele>219</ele>
        <time>2021-04-24T17:17:38+02:00</time>
      </trkpt>
      <trkpt lat="43.94463" lon="2.3121">
        <ele>225</ele>
        <time>2021-04-24T17:17:43+02:00</time>
      </trkpt>
      <trkpt lat="43.94488" lon="2.312">
        <ele>224</ele>
        <time>2021-04-24T17:17:48+02:00</time>
      </trkpt>
      <trkpt lat="43.94534" lon="2.31147">
        <ele>221</ele>
        <time>2021-04-24T17:17:53+02:00</time>
      </trkpt>
      <trkpt lat="43.94523" lon="2.3111">
        <ele>218</ele>
        <time>2021-04-24T17:17:58+02:00</time>
      </trkpt>
      <trkpt lat="43.94537" lon="2.31035">
        <ele>211</ele>
        <time>2021-04-24T17:18:03+02:00</time>
      </trkpt>
      <trkpt lat="43.94601" lon="2.31036">
        <ele>210</ele>
        <time>2021-04-24T17:18:08+02:00</time>
      </trkpt>
      <trkpt lat="43.94783" lon="2.31101">
        <ele>214</ele>
        <time>2021-04-24T17:18:13+02:00</time>
      </trkpt>
      <trkpt lat="43.94792" lon="2.31054">
        <ele>214</ele>
        <time>2021-04-24T17:18:18+02:00</time>
      </trkpt>
      <trkpt lat="43.94776" lon="2.30993">
        <ele>216</ele>
        <time>2021-04-24T17:18:23+02:00</time>
      </trkpt>
      <trkpt lat="43.94778" lon="2.30938">
        <ele>222</ele>
        <time>2021-04-24T17:18:28+02:00</time>
      </trkpt>
      <trkpt lat="43.94778" lon="2.30991">
        <ele>217</ele>
        <time>2021-04-24T17:18:33+02:00</time>
      </trkpt>
      <trkpt lat="43.94792" lon="2.31054">
        <ele>214</ele>
        <time>2021-04-24T17:18:38+02:00</time>
      </trkpt>
      <trkpt lat="43.94783" lon="2.31099">
        <ele>213</ele>
        <time>2021-04-24T17:18:43+02:00</time>
      </trkpt>
      <trkpt lat="43.94694" lon="2.31071">
        <ele>210</ele>
        <time>2021-04-24T17:18:48+02:00</time>
      </trkpt>
      <trkpt lat="43.946" lon="2.31037">
        <ele>210</ele>
        <time>2021-04-24T17:18:53+02:00</time>
      </trkpt>
      <trkpt lat="43.94539" lon="2.31038">
        <ele>211</ele>
        <time>2021-04-24T17:18:58+02:00</time>
      </trkpt>
      <trkpt lat="43.94485" lon="2.31038">
        <ele>215</ele>
        <time>2021-04-24T17:19:03+02:00</time>
      </trkpt>
      <trkpt lat="43.94414" lon="2.30999">
        <ele>213</ele>
        <time>2021-04-24T17:19:08+02:00</time>
      </trkpt>
      <trkpt lat="43.94344" lon="2.30936">
        <ele>211</ele>
        <time>2021-04-24T17:19:13+02:00</time>
      </trkpt>
      <trkpt lat="43.94293" lon="2.30876">
        <ele>205</ele>
        <time>2021-04-24T17:19:18+02:00</time>
      </trkpt>
      <trkpt lat="43.94265" lon="2.30801">
        <ele>200</ele>
        <time>2021-04-24T17:19:23+02:00</time>
      </trkpt>
      <trkpt lat="43.94254" lon="2.30751">
        <ele>197</ele>
        <time>2021-04-24T17:19:28+02:00</time>
      </trkpt>
      <trkpt lat="43.94273" lon="2.3066">
        <ele>195</ele>
        <time>2021-04-24T17:19:33+02:00</time>
      </trkpt>
      <trkpt lat="43.94167" lon="2.30665">
        <ele>194</ele>
        <time>2021-04-24T17:19:38+02:00</time>
      </trkpt>
      <trkpt lat="43.94183" lon="2.3079">
        <ele>198</ele>
        <time>2021-04-24T17:19:43+02:00</time>
      </trkpt>
      <trkpt lat="43.94246" lon="2.3104">
        <ele>205</ele>
        <time>2021-04-24T17:19:48+02:00</time>
      </trkpt>
      <trkpt lat="43.94186" lon="2.31095">
        <ele>219</ele>
        <time>2021-04-24T17:19:53+02:00</time>
      </trkpt>
      <trkpt lat="43.94204" lon="2.31139">
        <ele>220</ele>
        <time>2021-04-24T17:19:58+02:00</time>
      </trkpt>
      <trkpt lat="43.94072" lon="2.3116">
        <ele>244</ele>
        <time>2021-04-24T17:20:03+02:00</time>
      </trkpt>
      <trkpt lat="43.94067" lon="2.31178">
        <ele>248</ele>
        <time>2021-04-24T17:20:08+02:00</time>
      </trkpt>
      <trkpt lat="43.94086" lon="2.31218">
        <ele>251</ele>
        <time>2021-04-24T17:20:13+02:00</time>
      </trkpt>
      <trkpt lat="43.94077" lon="2.31257">
        <ele>254</ele>
        <time>2021-04-24T17:20:18+02:00</time>
      </trkpt>
      <trkpt lat="43.94051" lon="2.31244">
        <ele>259</ele>
        <time>2021-04-24T17:20:23+02:00</time>
      </trkpt>
      <trkpt lat="43.94029" lon="2.31255">
        <ele>266</ele>
        <time>2021-04-24T17:20:28+02:00</time>
      </trkpt>
      <trkpt lat="43.93988" lon="2.31251">
        <ele>274</ele>
        <time>2021-04-24T17:20:33+02:00</time>
      </trkpt>
      <trkpt lat="43.93984" lon="2.3129">
        <ele>278</ele>
        <time>2021-04-24T17:20:38+02:00</time>
      </trkpt>
      <trkpt lat="43.93945" lon="2.31289">
        <ele>286</ele>
        <time>2021-04-24T17:20:43+02:00</time>
      </trkpt>
      <trkpt lat="43.93917" lon="2.31341">
        <ele>298</ele>
        <time>2021-04-24T17:20:48+02:00</time>
      </trkpt>
      <trkpt lat="43.9388" lon="2.31455">
        <ele>309</ele>
        <time>2021-04-24T17:20:53+02:00</time>
      </trkpt>
      <trkpt lat="43.93819" lon="2.31463">
        <ele>310</ele>
        <time>2021-04-24T17:20:58+02:00</time>
      </trkpt>
      <trkpt lat="43.93752" lon="2.31431">
        <ele>315</ele>
        <time>2021-04-24T17:21:03+02:00</time>
      </trkpt>
      <trkpt lat="43.93711" lon="2.31384">
        <ele>319</ele>
        <time>2021-04-24T17:21:08+02:00</time>
      </trkpt>
      <trkpt lat="43.93707" lon="2.31413">
        <ele>320</ele>
        <time>2021-04-24T17:21:13+02:00</time>
      </trkpt>
      <trkpt lat="43.93684" lon="2.31437">
        <ele>319</ele>
        <time>2021-04-24T17:21:18+02:00</time>
      </trkpt>
      <trkpt lat="43.9365" lon="2.31516">
        <ele>299</ele>
        <time>2021-04-24T17:21:23+02:00</time>
      </trkpt>
      <trkpt lat="43.9365" lon="2.31544">
        <ele>297</ele>
        <time>2021-04-24T17:21:28+02:00</time>
      </trkpt>
      <trkpt lat="43.93677" lon="2.31575">
        <ele>310</ele>
        <time>2021-04-24T17:21:33+02:00</time>
      </trkpt>
      <trkpt lat="43.93669" lon="2.31626">
        <ele>304</ele>
        <time>2021-04-24T17:21:38+02:00</time>
      </trkpt>
      <trkpt lat="43.93646" lon="2.31676">
        <ele>297</ele>
        <time>2021-04-24T17:21:43+02:00</time>
      </trkpt>
      <trkpt lat="43.93612" lon="2.31698">
        <ele>277</ele>
        <time>2021-04-24T17:21:48+02:00</time>
      </trkpt>
      <trkpt lat="43.93618" lon="2.3163">
        <ele>270</ele>
        <time>2021-04-24T17:21:53+02:00</time>
      </trkpt>
      <trkpt lat="43.93593" lon="2.31653">
        <ele>257</ele>
        <time>2021-04-24T17:21:58+02:00</time>
      </trkpt>
      <trkpt lat="43.93566" lon="2.31693">
        <ele>246</ele>
        <time>2021-04-24T17:22:03+02:00</time>
      </trkpt>
      <trkpt lat="43.93561" lon="2.31723">
        <ele>243</ele>
        <time>2021-04-24T17:22:08+02:00</time>
      </trkpt>
      <trkpt lat="43.93563" lon="2.31766">
        <ele>240</ele>
        <time>2021-04-24T17:22:13+02:00</time>
      </trkpt>
      <trkpt lat="43.9354" lon="2.31789">
        <ele>225</ele>
        <time>2021-04-24T17:22:18+02:00</time>
      </trkpt>
      <trkpt lat="43.93536" lon="2.31848">
        <ele>226</ele>
        <time>2021-04-24T17:22:23+02:00</time>
      </trkpt>
      <trkpt lat="43.9353" lon="2.3175">
        <ele>218</ele>
        <time>2021-04-24T17:22:28+02:00</time>
      </trkpt>
      <trkpt lat="43.9351" lon="2.31782">
        <ele>207</ele>
        <time>2021-04-24T17:22:33+02:00</time>
      </trkpt>
      <trkpt lat="43.93499" lon="2.31833">
        <ele>203</ele>
        <time>2021-04-24T17:22:38+02:00</time>
      </trkpt>
      <trkpt lat="43.93477" lon="2.31871">
        <ele>198</ele>
        <time>2021-04-24T17:22:43+02:00</time>
      </trkpt>
      <trkpt lat="43.9346" lon="2.31865">
        <ele>194</ele>
        <time>2021-04-24T17:22:48+02:00</time>
      </trkpt>
      <trkpt lat="43.93446" lon="2.31865">
        <ele>191</ele>
        <time>2021-04-24T17:22:53+02:00</time>
      </trkpt>
      <trkpt lat="43.93411" lon="2.31882">
        <ele>186</ele>
        <time>2021-04-24T17:22:58+02:00</time>
      </trkpt>
      <trkpt lat="43.93402" lon="2.31914">
        <ele>185</ele>
        <time>2021-04-24T17:23:03+02:00</time>
      </trkpt>
      <trkpt lat="43.93388" lon="2.32101">
        <ele>186</ele>
        <time>2021-04-24T17:23:08+02:00</time>
      </trkpt>
      <trkpt lat="43.93327" lon="2.32559">
        <ele>187</ele>
        <time>2021-04-24T17:23:13+02:00</time>
      </trkpt>
      <trkpt lat="43.93327" lon="2.32701">
        <ele>189</ele>
        <time>2021-04-24T17:23:18+02:00</time>
      </trkpt>
      <trkpt lat="43.9334" lon="2.32914">
        <ele>188</ele>
        <time>2021-04-24T17:23:23+02:00</time>
      </trkpt>
      <trkpt lat="43.93389" lon="2.33035">
        <ele>192</ele>
        <time>2021-04-24T17:23:28+02:00</time>
      </trkpt>
      <trkpt lat="43.93448" lon="2.33106">
        <ele>194</ele>
        <time>2021-04-24T17:23:33+02:00</time>
      </trkpt>
      <trkpt lat="43.93486" lon="2.33122">
        <ele>197</ele>
        <time>2021-04-24T17:23:38+02:00</time>
      </trkpt>
      <trkpt lat="43.93536" lon="2.33164">
        <ele>193</ele>
        <time>2021-04-24T17:23:43+02:00</time>
      </trkpt>
      <trkpt lat="43.93557" lon="2.33175">
        <ele>194</ele>
        <time>2021-04-24T17:23:48+02:00</time>
      </trkpt>
      <trkpt lat="43.93577" lon="2.33189">
        <ele>197</ele>
        <time>2021-04-24T17:23:53+02:00</time>
      </trkpt>
      <trkpt lat="43.93594" lon="2.33195">
        <ele>200</ele>
        <time>2021-04-24T17:23:58+02:00</time>
      </trkpt>
      <trkpt lat="43.93676" lon="2.33284">
        <ele>203</ele>
        <time>2021-04-24T17:24:03+02:00</time>
      </trkpt>
      <trkpt lat="43.93742" lon="2.33337">
        <ele>211</ele>
        <time>2021-04-24T17:24:08+02:00</time>
      </trkpt>
      <trkpt lat="43.93787" lon="2.33348">
        <ele>216</ele>
        <time>2021-04-24T17:24:13+02:00</time>
      </trkpt>
      <trkpt lat="43.93834" lon="2.33306">
        <ele>223</ele>
        <time>2021-04-24T17:24:18+02:00</time>
      </trkpt>
      <trkpt lat="43.93871" lon="2.33321">
        <ele>211</ele>
        <time>2021-04-24T17:24:23+02:00</time>
      </trkpt>
      <trkpt lat="43.93873" lon="2.33348">
        <ele>203</ele>
        <time>2021-04-24T17:24:28+02:00</time>
      </trkpt>
      <trkpt lat="43.93882" lon="2.33352">
        <ele>202</ele>
        <time>2021-04-24T17:24:33+02:00</time>
      </trkpt>
      <trkpt lat="43.93879" lon="2.3338">
        <ele>197</ele>
        <time>2021-04-24T17:24:38+02:00</time>
      </trkpt>
      <trkpt lat="43.93911" lon="2.33462">
        <ele>201</ele>
        <time>2021-04-24T17:24:43+02:00</time>
      </trkpt>
      <trkpt lat="43.93933" lon="2.33579">
        <ele>220</ele>
        <time>2021-04-24T17:24:48+02:00</time>
      </trkpt>
      <trkpt lat="43.93963" lon="2.33626">
        <ele>226</ele>
        <time>2021-04-24T17:24:53+02:00</time>
      </trkpt>
      <trkpt lat="43.93997" lon="2.33674">
        <ele>234</ele>
        <time>2021-04-24T17:24:58+02:00</time>
      </trkpt>
      <trkpt lat="43.94022" lon="2.33721">
        <ele>242</ele>
        <time>2021-04-24T17:25:03+02:00</time>
      </trkpt>
      <trkpt lat="43.94052" lon="2.33754">
        <ele>253</ele>
        <time>2021-04-24T17:25:08+02:00</time>
      </trkpt>
      <trkpt lat="43.94088" lon="2.33784">
        <ele>260</ele>
        <time>2021-04-24T17:25:13+02:00</time>
      </trkpt>
      <trkpt lat="43.94143" lon="2.33817">
        <ele>276</ele>
        <time>2021-04-24T17:25:18+02:00</time>
      </trkpt>
      <trkpt lat="43.9422" lon="2.33875">
        <ele>298</ele>
        <time>2021-04-24T17:25:23+02:00</time>
      </trkpt>
      <trkpt lat="43.94302" lon="2.34022">
        <ele>318</ele>
        <time>2021-04-24T17:25:28+02:00</time>
      </trkpt>
      <trkpt lat="43.94342" lon="2.34062">
        <ele>327</ele>
        <time>2021-04-24T17:25:33+02:00</time>
      </trkpt>
      <trkpt lat="43.9435" lon="2.34086">
        <ele>327</ele>
        <time>2021-04-24T17:25:38+02:00</time>
      </trkpt>
      <trkpt lat="43.94341" lon="2.34134">
        <ele>325</ele>
        <time>2021-04-24T17:25:43+02:00</time>
      </trkpt>
      <trkpt lat="43.9435" lon="2.34176">
        <ele>332</ele>
        <time>2021-04-24T17:25:48+02:00</time>
      </trkpt>
      <trkpt lat="43.94377" lon="2.34191">
        <ele>336</ele>
        <time>2021-04-24T17:25:53+02:00</time>
      </trkpt>
      <trkpt lat="43.94374" lon="2.34172">
        <ele>341</ele>
        <time>2021-04-24T17:25:58+02:00</time>
      </trkpt>
      <trkpt lat="43.94371" lon="2.34151">
        <ele>341</ele>
        <time>2021-04-24T17:26:03+02:00</time>
      </trkpt>
      <trkpt lat="43.94398" lon="2.34115">
        <ele>349</ele>
        <time>2021-04-24T17:26:08+02:00</time>
      </trkpt>
      <trkpt lat="43.94423" lon="2.34125">
        <ele>359</ele>
        <time>2021-04-24T17:26:13+02:00</time>
      </trkpt>
      <trkpt lat="43.94483" lon="2.34128">
        <ele>369</ele>
        <time>2021-04-24T17:26:18+02:00</time>
      </trkpt>
      <trkpt lat="43.94539" lon="2.34108">
        <ele>376</ele>
        <time>2021-04-24T17:26:23+02:00</time>
      </trkpt>
      <trkpt lat="43.94595" lon="2.34091">
        <ele>384</ele>
        <time>2021-04-24T17:26:28+02:00</time>
      </trkpt>
      <trkpt lat="43.9462" lon="2.34107">
        <ele>386</ele>
        <time>2021-04-24T17:26:33+02:00</time>
      </trkpt>
      <trkpt lat="43.9467" lon="2.34137">
        <ele>390</ele>
        <time>2021-04-24T17:26:38+02:00</time>
      </trkpt>
      <trkpt lat="43.9471" lon="2.34163">
        <ele>393</ele>
        <time>2021-04-24T17:26:43+02:00</time>
      </trkpt>
      <trkpt lat="43.94763" lon="2.34156">
        <ele>395</ele>
        <time>2021-04-24T17:26:48+02:00</time>
      </trkpt>
      <trkpt lat="43.94845" lon="2.34095">
        <ele>395</ele>
        <time>2021-04-24T17:26:53+02:00</time>
      </trkpt>
      <trkpt lat="43.94881" lon="2.34049">
        <ele>395</ele>
        <time>2021-04-24T17:26:58+02:00</time>
      </trkpt>
      <trkpt lat="43.94953" lon="2.34016">
        <ele>395</ele>
        <time>2021-04-24T17:27:03+02:00</time>
      </trkpt>
      <trkpt lat="43.95002" lon="2.33968">
        <ele>395</ele>
        <time>2021-04-24T17:27:08+02:00</time>
      </trkpt>
      <trkpt lat="43.95038" lon="2.33946">
        <ele>395</ele>
        <time>2021-04-24T17:27:13+02:00</time>
      </trkpt>
      <trkpt lat="43.95101" lon="2.33865">
        <ele>395</ele>
        <time>2021-04-24T17:27:18+02:00</time>
      </trkpt>
      <trkpt lat="43.95132" lon="2.33863">
        <ele>395</ele>
        <time>2021-04-24T17:27:23+02:00</time>
      </trkpt>
      <trkpt lat="43.95284" lon="2.33851">
        <ele>395</ele>
        <time>2021-04-24T17:27:28+02:00</time>
      </trkpt>
      <trkpt lat="43.95345" lon="2.3387">
        <ele>395</ele>
        <time>2021-04-24T17:27:33+02:00</time>
      </trkpt>
      <trkpt lat="43.95458" lon="2.33924">
        <ele>395</ele>
        <time>2021-04-24T17:27:38+02:00</time>
      </trkpt>
      <trkpt lat="43.95607" lon="2.33976">
        <ele>395</ele>
        <time>2021-04-24T17:27:43+02:00</time>
      </trkpt>
      <trkpt lat="43.957" lon="2.33996">
        <ele>395</ele>
        <time>2021-04-24T17:27:48+02:00</time>
      </trkpt>
      <trkpt lat="43.95765" lon="2.3399">
        <ele>395</ele>
        <time>2021-04-24T17:27:53+02:00</time>
      </trkpt>
      <trkpt lat="43.95884" lon="2.33954">
        <ele>394</ele>
        <time>2021-04-24T17:27:58+02:00</time>
      </trkpt>
      <trkpt lat="43.96114" lon="2.33902">
        <ele>392</ele>
        <time>2021-04-24T17:28:03+02:00</time>
      </trkpt>
      <trkpt lat="43.96165" lon="2.33897">
        <ele>392</ele>
        <time>2021-04-24T17:28:08+02:00</time>
      </trkpt>
      <trkpt lat="43.96231" lon="2.33857">
        <ele>392</ele>
        <time>2021-04-24T17:28:13+02:00</time>
      </trkpt>
      <trkpt lat="43.96237" lon="2.33765">
        <ele>390</ele>
        <time>2021-04-24T17:28:18+02:00</time>
      </trkpt>
      <trkpt lat="43.96244" lon="2.3375">
        <ele>390</ele>
        <time>2021-04-24T17:28:23+02:00</time>
      </trkpt>
      <trkpt lat="43.96283" lon="2.33725">
        <ele>390</ele>
        <time>2021-04-24T17:28:28+02:00</time>
      </trkpt>
      <trkpt lat="43.96353" lon="2.33641">
        <ele>394</ele>
        <time>2021-04-24T17:28:33+02:00</time>
      </trkpt>
      <trkpt lat="43.96362" lon="2.33601">
        <ele>395</ele>
        <time>2021-04-24T17:28:38+02:00</time>
      </trkpt>
      <trkpt lat="43.96382" lon="2.33556">
        <ele>395</ele>
        <time>2021-04-24T17:28:43+02:00</time>
      </trkpt>
      <trkpt lat="43.96386" lon="2.33512">
        <ele>395</ele>
        <time>2021-04-24T17:28:48+02:00</time>
      </trkpt>
      <trkpt lat="43.96383" lon="2.33439">
        <ele>395</ele>
        <time>2021-04-24T17:28:53+02:00</time>
      </trkpt>
      <trkpt lat="43.96375" lon="2.33426">
        <ele>395</ele>
        <time>2021-04-24T17:28:58+02:00</time>
      </trkpt>
      <trkpt lat="43.96359" lon="2.33441">
        <ele>395</ele>
        <time>2021-04-24T17:29:03+02:00</time>
      </trkpt>
    </trkseg>
  </trk>
</gpx>